Time;durP1;ratioP1;P1;durP2;ratioP2;P2;SDS_P1;SDS_P2;PMS_P1;PMS_P2;Temp;Humidity;BMP_temperature;BMP_pressure;BME280_temperature;BME280_humidity;BME280_pressure;Samples;Min_cycle;Max_cycle;Signal;HPM_P1;HPM_P2
2022/03/05 00:00:38;;;;;;;41.38;13.57;;;;;;;0.99;100.00;98362.56;5006829;28;20033;-63
2022/03/05 00:03:04;;;;;;;43.05;12.90;;;;;;;0.93;100.00;98360.84;5006265;28;20037;-62
2022/03/05 00:05:31;;;;;;;38.83;12.60;;;;;;;1.08;100.00;98359.19;5011033;28;20037;-64
2022/03/05 00:07:56;;;;;;;39.15;11.30;;;;;;;1.37;100.00;98356.69;5009659;28;20022;-63
2022/03/05 00:10:22;;;;;;;36.25;10.43;;;;;;;1.44;100.00;98349.84;5008713;28;20033;-64
2022/03/05 00:12:51;;;;;;;37.63;13.63;;;;;;;1.16;100.00;98352.38;5016353;28;20022;-61
2022/03/05 00:15:18;;;;;;;30.77;9.48;;;;;;;1.40;100.00;98350.66;5008177;28;20025;-63
2022/03/05 00:17:44;;;;;;;33.70;9.95;;;;;;;1.44;100.00;98347.28;5010010;28;20422;-61
2022/03/05 00:20:10;;;;;;;28.10;9.52;;;;;;;1.57;100.00;98356.69;5006654;28;20037;-64
2022/03/05 00:22:36;;;;;;;36.22;10.95;;;;;;;1.50;100.00;98347.28;5008618;28;20036;-61
2022/03/05 00:25:03;;;;;;;43.28;15.18;;;;;;;1.10;100.00;98348.06;5005765;28;20038;-63
2022/03/05 00:27:29;;;;;;;24.45;9.25;;;;;;;1.83;100.00;98345.56;5009761;28;20053;-62
2022/03/05 00:29:54;;;;;;;30.15;11.05;;;;;;;1.85;100.00;98349.00;5007305;28;20322;-62
2022/03/05 00:32:20;;;;;;;29.77;10.18;;;;;;;1.87;100.00;98348.13;5008608;28;20515;-62
2022/03/05 00:34:45;;;;;;;34.33;9.27;;;;;;;2.07;100.00;98340.38;5009002;28;20056;-61
2022/03/05 00:37:11;;;;;;;29.50;8.65;;;;;;;2.05;100.00;98347.25;5008562;28;20686;-63
2022/03/05 00:39:36;;;;;;;32.53;9.55;;;;;;;2.02;100.00;98342.13;5008673;28;20565;-63
2022/03/05 00:42:03;;;;;;;32.38;10.13;;;;;;;1.88;100.00;98343.84;5014937;28;20128;-62
2022/03/05 00:44:28;;;;;;;27.33;8.82;;;;;;;2.14;100.00;98348.13;5008116;28;20037;-62
2022/03/05 00:46:54;;;;;;;35.17;11.30;;;;;;;1.52;100.00;98356.69;5009102;28;20124;-62
2022/03/05 00:49:20;;;;;;;28.00;9.02;;;;;;;2.24;100.00;98352.38;5008217;28;20032;-63
2022/03/05 00:51:45;;;;;;;34.55;10.32;;;;;;;1.91;100.00;98348.97;5006929;28;20044;-60
2022/03/05 00:54:10;;;;;;;25.48;8.75;;;;;;;2.08;100.00;98346.41;5010717;28;20459;-61
2022/03/05 00:56:36;;;;;;;26.17;9.38;;;;;;;1.96;100.00;98349.84;5012311;28;20123;-62
2022/03/05 00:59:01;;;;;;;27.42;8.55;;;;;;;2.11;100.00;98347.25;5012159;28;20125;-61
2022/03/05 01:01:26;;;;;;;28.25;7.88;;;;;;;1.80;100.00;98350.69;5010327;28;20544;-62
2022/03/05 01:03:52;;;;;;;26.60;10.38;;;;;;;1.79;100.00;98355.00;5011124;28;20033;-61
2022/03/05 01:06:17;;;;;;;25.15;8.05;;;;;;;2.49;100.00;98341.16;5011345;28;20052;-60
2022/03/05 01:08:43;;;;;;;38.90;13.38;;;;;;;1.66;100.00;98343.00;5011916;28;20022;-61
2022/03/05 01:11:09;;;;;;;35.85;13.90;;;;;;;1.33;100.00;98342.13;5011314;28;20033;-63
2022/03/05 01:13:35;;;;;;;31.88;8.70;;;;;;;1.92;100.00;98345.56;5008490;28;20025;-61
2022/03/05 01:16:01;;;;;;;27.80;8.88;;;;;;;1.93;100.00;98342.16;5010292;28;20041;-63
2022/03/05 01:18:26;;;;;;;28.15;8.38;;;;;;;1.96;100.00;98336.13;5011479;28;20040;-61
2022/03/05 01:20:51;;;;;;;31.42;8.52;;;;;;;2.10;100.00;98335.25;5011543;28;20499;-62
2022/03/05 01:23:17;;;;;;;25.98;8.43;;;;;;;1.98;100.00;98332.69;5011092;28;20057;-60
2022/03/05 01:25:42;;;;;;;29.55;9.38;;;;;;;1.91;100.00;98331.84;5009876;28;20120;-60
2022/03/05 01:28:08;;;;;;;23.35;7.25;;;;;;;2.30;100.00;98324.91;5012059;28;20065;-62
2022/03/05 01:30:34;;;;;;;31.60;8.75;;;;;;;2.70;100.00;98326.47;5010934;28;20439;-65
2022/03/05 01:33:00;;;;;;;24.50;7.10;;;;;;;2.78;100.00;98322.16;5010691;28;20026;-61
2022/03/05 01:35:25;;;;;;;39.65;13.50;;;;;;;1.56;100.00;98315.56;5009378;28;20329;-64
2022/03/05 01:37:50;;;;;;;26.77;8.25;;;;;;;2.07;100.00;98309.50;5011552;28;20667;-61
2022/03/05 01:40:16;;;;;;;31.55;11.82;;;;;;;1.50;100.00;98306.13;5012240;28;20091;-63
2022/03/05 01:42:41;;;;;;;33.30;8.13;;;;;;;2.85;100.00;98310.97;5012097;28;20025;-62
2022/03/05 01:45:10;;;;;;;37.50;13.15;;;;;;;1.87;100.00;98313.81;5013301;28;20033;-65
2022/03/05 01:47:37;;;;;;;23.83;7.97;;;;;;;2.20;100.00;98312.06;5010662;28;20073;-63
2022/03/05 01:50:02;;;;;;;30.10;9.98;;;;;;;1.92;100.00;98304.41;5012573;28;20117;-59
2022/03/05 01:52:28;;;;;;;31.92;10.00;;;;;;;1.72;100.00;98307.84;5009411;28;20112;-60
2022/03/05 01:54:53;;;;;;;40.90;11.95;;;;;;;1.63;100.00;98307.84;5011639;28;20041;-63
2022/03/05 01:57:19;;;;;;;32.25;12.50;;;;;;;1.46;100.00;98309.56;5010366;28;20469;-61
2022/03/05 01:59:44;;;;;;;39.47;13.25;;;;;;;1.35;100.00;98305.25;5009245;28;20028;-62
2022/03/05 02:02:10;;;;;;;39.25;13.73;;;;;;;0.77;100.00;98313.75;5008943;28;20048;-60
2022/03/05 02:04:35;;;;;;;41.60;15.40;;;;;;;0.40;100.00;98311.88;5011130;28;20525;-60
2022/03/05 02:07:01;;;;;;;43.85;12.02;;;;;;;0.48;100.00;98305.03;5009756;28;20034;-60
2022/03/05 02:09:26;;;;;;;34.35;12.68;;;;;;;0.57;100.00;98307.69;5009867;28;20025;-63
2022/03/05 02:11:51;;;;;;;43.97;13.75;;;;;;;0.48;100.00;98316.19;5010440;28;20419;-59
2022/03/05 02:14:18;;;;;;;44.08;13.85;;;;;;;0.36;100.00;98318.69;5009459;28;20184;-62
2022/03/05 02:16:44;;;;;;;41.78;13.63;;;;;;;0.28;100.00;98317.81;5011651;28;20038;-60
2022/03/05 02:19:10;;;;;;;39.70;11.85;;;;;;;0.54;100.00;98313.63;5010280;28;20622;-61
2022/03/05 02:21:36;;;;;;;35.63;10.95;;;;;;;0.80;100.00;98312.88;5009822;28;20048;-60
2022/03/05 02:24:02;;;;;;;44.50;13.10;;;;;;;0.80;100.00;98297.47;5012782;28;20167;-60
2022/03/05 02:26:27;;;;;;;34.50;11.43;;;;;;;0.77;100.00;98302.59;5006734;28;20042;-61
2022/03/05 02:28:53;;;;;;;41.20;12.05;;;;;;;0.46;100.00;98301.63;5011001;28;20029;-60
2022/03/05 02:31:18;;;;;;;37.35;12.13;;;;;;;0.79;100.00;98308.63;5011831;28;20034;-62
2022/03/05 02:33:44;;;;;;;41.00;13.10;;;;;;;0.45;100.00;98299.91;5009657;28;20047;-60
2022/03/05 02:36:10;;;;;;;43.67;12.38;;;;;;;0.48;100.00;98312.75;5009498;28;20124;-62
2022/03/05 02:38:36;;;;;;;36.20;12.40;;;;;;;0.39;100.00;98305.88;5011516;28;20108;-61
2022/03/05 02:41:03;;;;;;;34.47;10.95;;;;;;;0.43;100.00;98306.75;5009665;28;20088;-60
2022/03/05 02:43:28;;;;;;;50.67;15.02;;;;;;;0.29;100.00;98317.78;5008568;28;20104;-60
2022/03/05 02:45:54;;;;;;;40.95;13.40;;;;;;;0.22;100.00;98310.06;5010035;28;20122;-61
2022/03/05 02:48:21;;;;;;;45.03;13.45;;;;;;;0.16;100.00;98308.31;5009840;28;20715;-62
2022/03/05 02:50:49;;;;;;;40.80;12.90;;;;;;;0.10;100.00;98309.16;5009601;28;20040;-62
2022/03/05 02:53:15;;;;;;;37.78;11.52;;;;;;;0.24;100.00;98311.81;5009320;28;20451;-63
2022/03/05 02:55:41;;;;;;;37.55;11.85;;;;;;;0.25;100.00;98313.50;5008742;28;20776;-61
2022/03/05 02:58:07;;;;;;;34.70;10.30;;;;;;;0.69;100.00;98309.41;5010172;28;20100;-61
2022/03/05 03:00:33;;;;;;;40.58;12.70;;;;;;;0.54;100.00;98318.78;5009403;28;20527;-62
2022/03/05 03:02:58;;;;;;;39.63;10.45;;;;;;;0.92;100.00;98306.91;5008542;28;20095;-63
2022/03/05 03:05:24;;;;;;;36.80;11.50;;;;;;;0.45;100.00;98318.72;5008392;28;20412;-62
2022/03/05 03:07:49;;;;;;;27.27;9.82;;;;;;;0.98;100.00;98317.22;5008911;28;20021;-63
2022/03/05 03:10:16;;;;;;;26.98;8.00;;;;;;;1.62;100.00;98316.44;5009097;28;20060;-60
2022/03/05 03:12:42;;;;;;;33.95;9.98;;;;;;;1.32;100.00;98313.00;5010906;28;20014;-62
2022/03/05 03:15:09;;;;;;;28.30;7.50;;;;;;;1.79;100.00;98319.00;5008688;28;20026;-60
2022/03/05 03:17:48;;;;;;;31.85;9.60;;;;;;;1.78;100.00;98306.13;5009432;28;20017;-61
2022/03/05 03:20:17;;;;;;;27.52;9.52;;;;;;;1.30;100.00;98299.25;5009500;28;20775;-60
2022/03/05 03:22:44;;;;;;;37.05;11.32;;;;;;;0.95;100.00;98304.34;5009172;28;20124;-61
2022/03/05 03:25:10;;;;;;;31.42;10.02;;;;;;;0.94;100.00;98303.50;5007908;28;20119;-62
2022/03/05 03:27:36;;;;;;;39.78;12.07;;;;;;;1.13;100.00;98304.38;5007423;28;20113;-59
2022/03/05 03:30:03;;;;;;;40.63;14.73;;;;;;;0.81;100.00;98309.47;5010613;28;20383;-61
2022/03/05 03:32:28;;;;;;;34.05;12.13;;;;;;;0.68;100.00;98307.69;5007067;28;20052;-60
2022/03/05 03:34:54;;;;;;;44.95;12.40;;;;;;;0.83;100.00;98307.75;5008235;28;20021;-63
2022/03/05 03:37:19;;;;;;;34.22;10.77;;;;;;;0.80;100.00;98307.75;5008714;28;20037;-60
2022/03/05 03:39:44;;;;;;;46.17;11.32;;;;;;;1.00;100.00;98309.50;5009523;28;20029;-61
2022/03/05 03:42:10;;;;;;;41.22;12.95;;;;;;;0.96;100.00;98306.94;5009116;28;20030;-61
2022/03/05 03:44:35;;;;;;;36.88;11.95;;;;;;;0.51;100.00;98305.91;5008381;28;20027;-59
2022/03/05 03:47:00;;;;;;;34.67;9.45;;;;;;;0.75;100.00;98312.00;5007396;28;20796;-61
2022/03/05 03:49:26;;;;;;;35.58;12.55;;;;;;;0.61;100.00;98306.84;5007999;28;20028;-61
2022/03/05 03:51:51;;;;;;;34.13;9.43;;;;;;;0.68;100.00;98307.69;5009161;28;20506;-59
2022/03/05 03:54:16;;;;;;;44.25;13.60;;;;;;;0.73;100.00;98311.13;5007707;28;20148;-61
2022/03/05 03:56:42;;;;;;;34.17;11.85;;;;;;;0.68;100.00;98320.53;5008004;28;20034;-58
2022/03/05 03:59:07;;;;;;;36.47;11.38;;;;;;;0.74;100.00;98316.28;5008405;28;20021;-60
2022/03/05 04:01:33;;;;;;;32.83;10.27;;;;;;;1.07;100.00;98316.38;5005413;28;20414;-59
2022/03/05 04:03:58;;;;;;;42.80;13.93;;;;;;;0.73;100.00;98331.69;5007885;28;20030;-60
2022/03/05 04:06:24;;;;;;;40.15;12.48;;;;;;;0.92;100.00;98328.34;5008350;28;20062;-60
2022/03/05 04:08:49;;;;;;;37.78;10.80;;;;;;;1.00;100.00;98324.94;5007853;28;20124;-60
2022/03/05 04:11:18;;;;;;;30.52;9.30;;;;;;;1.43;100.00;98319.84;5007633;28;20060;-61
2022/03/05 04:13:45;;;;;;;38.30;13.40;;;;;;;1.50;100.00;98319.00;5006593;28;20156;-60
2022/03/05 04:16:11;;;;;;;44.05;13.55;;;;;;;1.06;100.00;98324.94;5008464;28;20041;-60
2022/03/05 04:18:36;;;;;;;42.17;14.15;;;;;;;0.76;100.00;98326.56;5010067;28;20093;-60
2022/03/05 04:21:02;;;;;;;47.03;12.73;;;;;;;0.93;100.00;98330.03;5008528;28;20041;-63
2022/03/05 04:23:28;;;;;;;42.58;13.68;;;;;;;0.74;100.00;98325.72;5007620;28;20058;-60
2022/03/05 04:25:53;;;;;;;39.10;11.52;;;;;;;0.85;100.00;98321.47;5009732;28;20030;-60
2022/03/05 04:28:19;;;;;;;36.25;12.68;;;;;;;0.94;100.00;98320.63;5010873;28;20034;-61
2022/03/05 04:30:44;;;;;;;37.35;12.20;;;;;;;0.82;100.00;98325.72;5013617;28;20784;-61
2022/03/05 04:33:10;;;;;;;44.70;13.23;;;;;;;0.98;100.00;98317.22;5011643;28;20038;-62
2022/03/05 04:35:36;;;;;;;33.47;10.70;;;;;;;1.34;100.00;98324.13;5011244;28;20064;-61
2022/03/05 04:38:02;;;;;;;45.05;14.50;;;;;;;0.63;100.00;98317.13;5012123;28;20032;-61
2022/03/05 04:40:27;;;;;;;38.50;11.85;;;;;;;1.24;100.00;98324.97;5011063;28;20036;-62
2022/03/05 04:42:52;;;;;;;43.83;11.02;;;;;;;1.35;100.00;98333.53;5011479;28;20424;-60
2022/03/05 04:45:18;;;;;;;44.63;12.85;;;;;;;1.14;100.00;98328.38;5012233;28;20128;-59
2022/03/05 04:47:43;;;;;;;40.08;14.45;;;;;;;0.92;100.00;98333.47;5012656;28;20022;-61
2022/03/05 04:50:10;;;;;;;42.92;14.95;;;;;;;0.88;100.00;98339.47;5011070;28;20136;-60
2022/03/05 04:52:36;;;;;;;42.45;13.77;;;;;;;0.60;100.00;98338.47;5011047;28;20022;-60
2022/03/05 04:55:05;;;;;;;34.42;9.27;;;;;;;1.30;100.00;98330.09;5009751;28;20025;-60
2022/03/05 04:57:31;;;;;;;42.03;14.32;;;;;;;0.67;100.00;98334.25;5013535;28;20034;-60
2022/03/05 04:59:57;;;;;;;45.92;14.23;;;;;;;0.45;100.00;98344.41;5012261;28;20033;-61
2022/03/05 05:02:22;;;;;;;37.45;12.98;;;;;;;0.48;100.00;98335.84;5008742;28;20034;-60
2022/03/05 05:04:48;;;;;;;45.60;12.70;;;;;;;0.84;100.00;98335.13;5010392;28;20030;-61
2022/03/05 05:07:13;;;;;;;33.63;10.00;;;;;;;0.85;100.00;98342.00;5010910;28;20076;-61
2022/03/05 05:09:40;;;;;;;36.70;11.05;;;;;;;0.96;100.00;98350.59;5010048;28;20029;-61
2022/03/05 05:12:06;;;;;;;31.15;8.65;;;;;;;1.37;100.00;98350.69;5011877;28;20030;-61
2022/03/05 05:14:32;;;;;;;44.72;13.48;;;;;;;0.84;100.00;98354.84;5013472;28;20079;-62
2022/03/05 05:16:57;;;;;;;30.88;9.18;;;;;;;1.20;100.00;98356.66;5010691;28;20038;-63
2022/03/05 05:19:27;;;;;;;31.00;10.55;;;;;;;0.87;100.00;98358.28;5011697;28;20586;-61
2022/03/05 05:22:00;;;;;;;38.67;12.98;;;;;;;0.77;100.00;98354.81;5009076;28;20038;-62
2022/03/05 05:24:27;;;;;;;35.17;11.98;;;;;;;0.77;100.00;98359.97;5010393;28;20030;-61
2022/03/05 05:26:56;;;;;;;38.30;12.77;;;;;;;0.53;100.00;98360.72;5011370;28;20049;-62
2022/03/05 05:29:22;;;;;;;33.75;9.82;;;;;;;0.79;100.00;98364.22;5009975;28;20340;-60
2022/03/05 05:31:49;;;;;;;40.05;12.38;;;;;;;0.69;100.00;98360.78;5008992;28;20054;-60
2022/03/05 05:34:15;;;;;;;37.10;13.63;;;;;;;0.46;100.00;98371.78;5011649;28;20028;-60
2022/03/05 05:36:40;;;;;;;44.95;13.25;;;;;;;0.39;100.00;98372.59;5009427;28;20033;-61
2022/03/05 05:39:07;;;;;;;32.33;10.88;;;;;;;0.80;100.00;98364.22;5012329;28;20408;-61
2022/03/05 05:41:33;;;;;;;40.20;13.30;;;;;;;0.23;100.00;98375.94;5011989;28;20111;-62
2022/03/05 05:43:58;;;;;;;47.05;14.13;;;;;;;0.38;100.00;98376.88;5010917;28;20624;-60
2022/03/05 05:46:24;;;;;;;32.42;11.82;;;;;;;0.46;100.00;98376.03;5009557;28;20041;-60
2022/03/05 05:48:49;;;;;;;41.95;13.07;;;;;;;0.44;100.00;98378.63;5009781;28;20662;-62
2022/03/05 05:51:15;;;;;;;45.58;14.20;;;;;;;-0.04;100.00;98383.44;5009524;28;20045;-59
2022/03/05 05:53:40;;;;;;;39.00;12.57;;;;;;;0.67;100.00;98377.88;5011457;28;20045;-63
2022/03/05 05:56:05;;;;;;;43.80;13.75;;;;;;;0.87;100.00;98381.38;5011167;28;20788;-62
2022/03/05 05:58:31;;;;;;;43.33;14.30;;;;;;;0.70;100.00;98389.03;5014072;28;20948;-62
2022/03/05 06:00:56;;;;;;;46.90;14.55;;;;;;;0.21;100.00;98393.03;5010790;28;20398;-61
2022/03/05 06:03:21;;;;;;;44.08;13.10;;;;;;;0.40;100.00;98396.56;5010096;28;20025;-63
2022/03/05 06:05:47;;;;;;;41.58;13.43;;;;;;;0.30;100.00;98398.22;5006757;28;20121;-60
2022/03/05 06:08:12;;;;;;;49.67;14.10;;;;;;;0.31;100.00;98399.91;5009476;28;20038;-59
2022/03/05 06:10:38;;;;;;;41.03;15.55;;;;;;;0.38;100.00;98396.53;5011135;28;20064;-61
2022/03/05 06:13:03;;;;;;;48.83;14.75;;;;;;;0.57;100.00;98398.38;5011227;28;20079;-60
2022/03/05 06:15:28;;;;;;;41.22;13.90;;;;;;;0.36;100.00;98393.09;5007793;28;20742;-59
2022/03/05 06:17:54;;;;;;;40.67;12.35;;;;;;;0.57;100.00;98398.38;5009202;28;20484;-61
2022/03/05 06:20:20;;;;;;;40.92;13.45;;;;;;;0.55;100.00;98394.94;5009903;28;20502;-60
2022/03/05 06:22:45;;;;;;;42.30;13.02;;;;;;;0.98;100.00;98390.84;5009724;28;20044;-60
2022/03/05 06:25:11;;;;;;;50.33;14.85;;;;;;;1.05;100.00;98390.00;5007593;28;20034;-61
2022/03/05 06:27:36;;;;;;;38.20;13.30;;;;;;;0.72;100.00;98395.03;5011024;28;20033;-60
2022/03/05 06:30:02;;;;;;;49.22;13.80;;;;;;;0.63;100.00;98396.69;5009078;28;20068;-61
2022/03/05 06:32:27;;;;;;;44.15;13.52;;;;;;;1.13;100.00;98396.03;5010486;28;20038;-63
2022/03/05 06:34:54;;;;;;;49.50;13.38;;;;;;;1.32;100.00;98394.34;5009581;28;20029;-60
2022/03/05 06:37:21;;;;;;;48.08;13.75;;;;;;;1.17;100.00;98394.34;5010858;28;20064;-60
2022/03/05 06:39:46;;;;;;;35.35;11.50;;;;;;;1.69;100.00;98394.41;5011143;28;20732;-60
2022/03/05 06:42:11;;;;;;;35.63;11.70;;;;;;;1.84;100.00;98391.00;5010058;28;20044;-62
2022/03/05 06:44:37;;;;;;;42.50;13.70;;;;;;;1.47;100.00;98390.97;5010071;28;20033;-61
2022/03/05 06:47:03;;;;;;;43.67;13.80;;;;;;;1.33;100.00;98401.22;5010099;28;20038;-58
2022/03/05 06:49:28;;;;;;;46.33;14.05;;;;;;;1.77;100.00;98391.88;5010469;28;20028;-61
2022/03/05 06:51:53;;;;;;;38.13;13.25;;;;;;;1.59;100.00;98393.56;5009809;28;20041;-60
2022/03/05 06:54:19;;;;;;;37.92;13.05;;;;;;;1.41;100.00;98403.81;5008512;28;20021;-60
2022/03/05 06:56:44;;;;;;;35.28;12.70;;;;;;;1.22;100.00;98398.63;5009276;28;20030;-59
2022/03/05 06:59:09;;;;;;;41.25;13.00;;;;;;;1.59;100.00;98403.84;5011276;28;20033;-59
2022/03/05 07:01:35;;;;;;;46.60;15.00;;;;;;;1.40;100.00;98408.09;5008335;28;20038;-60
2022/03/05 07:04:00;;;;;;;38.95;13.00;;;;;;;1.58;100.00;98409.84;5008558;28;20038;-62
2022/03/05 07:06:25;;;;;;;41.78;13.48;;;;;;;1.48;100.00;98405.53;5006944;28;20057;-62
2022/03/05 07:08:51;;;;;;;37.50;13.90;;;;;;;1.87;100.00;98403.88;5010181;28;20025;-59
2022/03/05 07:11:16;;;;;;;41.83;13.35;;;;;;;2.58;100.00;98396.06;5010135;28;20045;-61
2022/03/05 07:13:41;;;;;;;36.47;12.80;;;;;;;2.43;100.00;98395.25;5009191;28;20030;-62
2022/03/05 07:16:07;;;;;;;36.65;14.43;;;;;;;2.84;100.00;98388.25;5008545;28;20580;-63
2022/03/05 07:18:32;;;;;;;43.75;14.02;;;;;;;2.75;100.00;98393.44;5010199;28;20626;-61
2022/03/05 07:20:58;;;;;;;44.95;14.88;;;;;;;3.14;100.00;98389.81;5007765;28;20041;-62
2022/03/05 07:23:24;;;;;;;40.65;13.98;;;;;;;3.08;100.00;98392.44;5012346;28;20037;-61
2022/03/05 07:25:50;;;;;;;36.17;12.45;;;;;;;3.93;100.00;98395.34;5008414;28;20037;-63
2022/03/05 07:28:15;;;;;;;39.78;14.00;;;;;;;3.38;100.00;98395.72;5012616;28;20040;-63
2022/03/05 07:30:42;;;;;;;45.38;14.90;;;;;;;3.49;100.00;98393.94;5011035;28;20458;-65
2022/03/05 07:33:08;;;;;;;41.45;14.35;;;;;;;2.76;100.00;98396.00;5009526;28;20033;-64
2022/03/05 07:35:33;;;;;;;40.25;14.27;;;;;;;4.61;100.00;98393.00;5010689;28;20034;-66
2022/03/05 07:37:59;;;;;;;41.78;13.90;;;;;;;3.96;100.00;98400.47;5009177;28;20073;-62
2022/03/05 07:40:24;;;;;;;38.05;13.35;;;;;;;3.95;100.00;98396.22;5009983;28;20046;-62
2022/03/05 07:42:49;;;;;;;40.22;14.23;;;;;;;4.55;100.00;98412.88;5009110;28;20025;-63
2022/03/05 07:45:15;;;;;;;36.40;13.10;;;;;;;3.50;100.00;98402.53;5006372;28;20029;-63
2022/03/05 07:47:41;;;;;;;34.17;12.63;;;;;;;3.96;100.00;98405.66;5008708;28;20129;-60
2022/03/05 07:50:07;;;;;;;35.08;13.70;;;;;;;3.70;100.00;98405.00;5008273;28;20462;-64
2022/03/05 07:52:32;;;;;;;39.85;14.18;;;;;;;4.60;100.00;98405.94;5010898;28;20331;-64
2022/03/05 07:54:57;;;;;;;46.13;13.75;;;;;;;4.83;100.00;98408.25;5009585;28;20451;-60
2022/03/05 07:57:23;;;;;;;33.08;12.55;;;;;;;5.70;100.00;98402.81;5009503;28;20066;-62
2022/03/05 07:59:48;;;;;;;42.90;14.05;;;;;;;5.97;100.00;98402.44;5009794;28;20026;-61
2022/03/05 08:02:16;;;;;;;38.63;13.63;;;;;;;8.24;100.00;98411.63;5009403;28;20497;-61
2022/03/05 08:04:44;;;;;;;39.50;12.90;;;;;;;8.98;90.88;98398.44;5011157;28;20444;-61
2022/03/05 08:07:09;;;;;;;38.25;12.95;;;;;;;7.78;88.42;98407.53;5013256;28;20596;-60
2022/03/05 08:09:36;;;;;;;39.53;12.52;;;;;;;10.82;74.60;98402.19;5014284;28;20033;-63
2022/03/05 08:12:03;;;;;;;33.03;12.18;;;;;;;10.06;63.11;98406.47;5012570;28;20041;-64
2022/03/05 08:14:28;;;;;;;31.85;12.05;;;;;;;13.77;55.09;98396.19;5012831;28;20037;-61
2022/03/05 08:16:53;;;;;;;28.55;12.20;;;;;;;11.63;50.97;98400.06;5011318;28;20483;-59
2022/03/05 08:19:18;;;;;;;28.55;12.55;;;;;;;13.07;54.10;98408.97;5015022;28;20125;-62
2022/03/05 08:21:44;;;;;;;28.60;12.20;;;;;;;14.05;49.73;98396.53;5013994;28;20132;-65
2022/03/05 08:24:10;;;;;;;29.50;12.95;;;;;;;13.73;48.12;98402.47;5011036;28;20042;-62
2022/03/05 08:26:37;;;;;;;23.60;11.60;;;;;;;15.27;45.82;98400.00;5013860;28;20687;-64
2022/03/05 08:29:02;;;;;;;23.33;11.50;;;;;;;16.27;42.79;98400.59;5011105;28;20025;-64
2022/03/05 08:31:28;;;;;;;22.30;11.05;;;;;;;15.37;46.54;98401.22;5012110;28;20042;-63
2022/03/05 08:33:53;;;;;;;23.27;11.48;;;;;;;15.16;43.57;98396.19;5012401;28;20073;-63
2022/03/05 08:36:18;;;;;;;24.05;11.27;;;;;;;17.00;38.42;98386.66;5012217;28;20130;-63
2022/03/05 08:38:44;;;;;;;24.00;10.57;;;;;;;16.17;41.73;98396.78;5013042;28;20487;-62
2022/03/05 08:41:09;;;;;;;22.48;10.80;;;;;;;15.22;41.03;98397.63;5010785;28;20049;-63
2022/03/05 08:43:35;;;;;;;23.50;10.93;;;;;;;14.70;40.14;98401.19;5013119;28;20057;-63
2022/03/05 08:46:01;;;;;;;20.05;10.73;;;;;;;17.57;43.29;98385.75;5013559;28;20044;-65
2022/03/05 08:48:28;;;;;;;24.95;11.45;;;;;;;14.20;40.83;98396.72;5012659;28;20030;-66
2022/03/05 08:50:53;;;;;;;20.40;11.13;;;;;;;18.12;36.35;98389.28;5012567;28;20124;-66
2022/03/05 08:53:19;;;;;;;23.83;11.30;;;;;;;16.25;38.38;98399.84;5011418;28;20116;-66
2022/03/05 08:55:44;;;;;;;20.23;10.57;;;;;;;15.35;37.00;98397.84;5011984;28;20044;-65
2022/03/05 08:58:09;;;;;;;19.15;10.55;;;;;;;13.67;39.94;98394.00;5012215;28;20022;-63
2022/03/05 09:00:35;;;;;;;21.95;11.13;;;;;;;14.87;39.08;98384.59;5010714;28;20183;-66
2022/03/05 09:03:00;;;;;;;21.27;11.10;;;;;;;12.31;44.27;98388.66;5011888;28;20018;-61
2022/03/05 09:05:26;;;;;;;21.67;9.90;;;;;;;11.79;43.60;98395.13;5010611;28;21395;-60
2022/03/05 09:07:51;;;;;;;20.95;10.65;;;;;;;12.57;42.19;98401.53;5012085;28;20037;-64
2022/03/05 09:10:16;;;;;;;21.02;9.05;;;;;;;12.01;41.68;98390.75;5013062;28;20112;-62
2022/03/05 09:12:42;;;;;;;18.83;9.10;;;;;;;12.64;39.40;98390.72;5011090;28;20108;-63
2022/03/05 09:15:08;;;;;;;21.08;8.90;;;;;;;15.32;37.72;98380.44;5012386;28;20596;-62
2022/03/05 09:17:33;;;;;;;20.60;9.70;;;;;;;13.41;41.42;98391.72;5014194;28;20079;-64
2022/03/05 09:19:59;;;;;;;18.48;8.10;;;;;;;14.44;37.07;98382.34;5012874;28;20022;-62
2022/03/05 09:22:24;;;;;;;19.08;9.00;;;;;;;14.88;35.24;98382.81;5011647;28;20416;-63
2022/03/05 09:24:50;;;;;;;27.80;10.52;;;;;;;13.11;38.12;98386.94;5011344;28;20409;-63
2022/03/05 09:27:15;;;;;;;19.95;9.63;;;;;;;13.21;39.20;98387.38;5012412;28;20041;-64
2022/03/05 09:29:41;;;;;;;21.08;10.30;;;;;;;14.00;37.71;98393.28;5013696;28;20425;-63
2022/03/05 09:32:08;;;;;;;21.52;10.05;;;;;;;13.23;38.49;98393.38;5009676;28;20042;-64
2022/03/05 09:34:34;;;;;;;20.88;10.15;;;;;;;14.67;37.98;98388.25;5010869;28;20687;-65
2022/03/05 09:36:59;;;;;;;23.33;10.38;;;;;;;13.45;40.94;98385.41;5011452;28;20050;-63
2022/03/05 09:39:25;;;;;;;21.10;10.25;;;;;;;16.40;36.38;98384.09;5013090;28;20045;-62
2022/03/05 09:41:51;;;;;;;18.60;9.45;;;;;;;16.46;34.85;98387.19;5010553;28;20034;-62
2022/03/05 09:44:17;;;;;;;19.38;9.68;;;;;;;12.46;39.26;98397.63;5011184;28;20057;-62
2022/03/05 09:46:43;;;;;;;21.48;10.13;;;;;;;11.98;39.55;98393.47;5011372;28;20053;-63
2022/03/05 09:49:10;;;;;;;21.98;9.80;;;;;;;12.01;39.40;98390.75;5011000;28;20033;-60
2022/03/05 09:51:35;;;;;;;20.08;9.60;;;;;;;12.20;40.25;98398.69;5009749;28;20064;-61
2022/03/05 09:54:02;;;;;;;22.05;9.48;;;;;;;11.15;40.12;98394.03;5010413;28;20050;-62
2022/03/05 09:56:28;;;;;;;17.02;9.02;;;;;;;13.22;38.09;98387.31;5009788;28;20423;-63
2022/03/05 09:58:54;;;;;;;19.02;8.85;;;;;;;11.99;37.79;98391.72;5012683;28;20095;-63
2022/03/05 10:01:20;;;;;;;21.15;9.00;;;;;;;12.88;37.03;98380.97;5010097;28;20062;-64
2022/03/05 10:03:51;;;;;;;20.05;8.75;;;;;;;11.86;37.99;98388.72;5012255;28;20123;-63
2022/03/05 10:06:22;;;;;;;19.17;8.05;;;;;;;13.26;36.24;98381.00;5008620;28;20046;-66
2022/03/05 10:08:51;;;;;;;20.73;9.43;;;;;;;11.72;38.03;98382.25;5008673;28;20037;-63
2022/03/05 10:11:17;;;;;;;19.45;8.13;;;;;;;12.84;45.43;98376.78;5010405;28;20045;-62
2022/03/05 10:13:43;;;;;;;20.05;8.40;;;;;;;14.20;36.78;98375.72;5009692;28;20168;-61
2022/03/05 10:16:28;;;;;;;19.83;8.02;;;;;;;14.97;42.42;98366.56;5010105;28;20128;-62
2022/03/05 10:18:54;;;;;;;19.23;8.60;;;;;;;13.76;35.95;98370.88;5009324;28;20060;-64
2022/03/05 10:21:29;;;;;;;20.38;8.43;;;;;;;11.80;38.91;98375.88;5007075;28;20038;-61
2022/03/05 10:24:08;;;;;;;20.52;8.85;;;;;;;11.53;37.02;98373.47;5007671;28;20060;-64
2022/03/05 10:26:53;;;;;;;16.45;6.32;;;;;;;9.79;38.53;98377.78;5008883;28;20042;-63
2022/03/05 10:29:20;;;;;;;19.00;7.38;;;;;;;11.34;34.82;98363.72;5010099;28;20052;-60
2022/03/05 10:32:05;;;;;;;17.80;7.38;;;;;;;11.32;34.83;98367.28;5011086;28;20033;-61
2022/03/05 10:34:46;;;;;;;21.05;7.38;;;;;;;8.83;39.84;98373.72;5010628;28;20075;-60
2022/03/05 10:37:12;;;;;;;24.98;8.18;;;;;;;8.65;39.38;98369.88;5011321;28;20041;-62
2022/03/05 10:39:38;;;;;;;19.80;6.63;;;;;;;8.76;41.74;98377.38;5010247;28;20028;-61
2022/03/05 10:42:20;;;;;;;17.20;6.05;;;;;;;9.12;97.27;98380.69;5007970;28;20629;-62
2022/03/05 10:45:08;;;;;;;25.88;6.93;;;;;;;7.69;44.19;98371.41;5009525;28;20051;-60
2022/03/05 10:47:41;;;;;;;24.48;6.70;;;;;;;8.32;54.81;98377.63;5008958;28;20099;-59
2022/03/05 10:50:20;;;;;;;19.92;6.03;;;;;;;8.62;49.21;98375.16;5017728;28;20379;-61
2022/03/05 10:52:50;;;;;;;18.70;5.75;;;;;;;8.25;55.18;98369.16;5007957;28;20554;-60
2022/03/05 10:55:24;;;;;;;20.38;6.70;;;;;;;7.48;49.39;98373.59;5006651;28;20407;-61
2022/03/05 10:58:04;;;;;;;18.52;6.15;;;;;;;8.01;53.94;98374.97;5009514;28;20574;-60
2022/03/05 11:00:30;;;;;;;18.95;6.28;;;;;;;6.71;44.77;98364.00;5007685;28;20048;-62
2022/03/05 11:02:58;;;;;;;20.83;7.13;;;;;;;6.32;44.42;98375.06;5008291;28;20021;-60
2022/03/05 11:05:23;;;;;;;22.40;6.72;;;;;;;6.02;44.28;98362.66;5008284;28;20030;-61
2022/03/05 11:07:49;;;;;;;19.13;6.35;;;;;;;6.43;44.26;98363.66;5010842;28;20091;-62
2022/03/05 11:10:18;;;;;;;22.17;6.43;;;;;;;6.25;43.07;98375.19;5008283;28;20028;-60
2022/03/05 11:12:51;;;;;;;27.20;7.03;;;;;;;6.70;43.14;98360.53;5005300;28;20027;-62
2022/03/05 11:15:18;;;;;;;18.15;5.70;;;;;;;6.07;42.92;98361.69;5006037;28;20042;-62